sensor_id;sensor_type;location;lat;lon;timestamp;pressure;altitude;pressure_sealevel;temperature;humidity
25430;BME280;13360;48.152;-1.788;2023-02-12T00:02:16;103607.63;;;7.66;100.00
25430;BME280;13360;48.152;-1.788;2023-02-12T00:04:41;103620.31;;;7.67;100.00
25430;BME280;13360;48.152;-1.788;2023-02-12T00:07:06;103625.63;;;7.69;100.00
25430;BME280;13360;48.152;-1.788;2023-02-12T00:09:32;103624.13;;;7.66;100.00
25430;BME280;13360;48.152;-1.788;2023-02-12T00:11:57;103620.75;;;7.64;100.00
25430;BME280;13360;48.152;-1.788;2023-02-12T00:14:23;103614.59;;;7.62;100.00
25430;BME280;13360;48.152;-1.788;2023-02-12T00:16:48;103616.50;;;7.61;100.00
25430;BME280;13360;48.152;-1.788;2023-02-12T00:19:13;103608.25;;;7.61;100.00
25430;BME280;13360;48.152;-1.788;2023-02-12T00:21:39;103607.81;;;7.58;100.00
25430;BME280;13360;48.152;-1.788;2023-02-12T00:24:04;103615.44;;;7.56;100.00
25430;BME280;13360;48.152;-1.788;2023-02-12T00:26:29;103612.69;;;7.56;100.00
25430;BME280;13360;48.152;-1.788;2023-02-12T00:28:55;103616.91;;;7.52;100.00
25430;BME280;13360;48.152;-1.788;2023-02-12T00:31:23;103593.59;;;7.48;100.00
25430;BME280;13360;48.152;-1.788;2023-02-12T00:33:48;103593.19;;;7.44;100.00
25430;BME280;13360;48.152;-1.788;2023-02-12T00:36:17;103584.72;;;7.39;100.00
25430;BME280;13360;48.152;-1.788;2023-02-12T00:38:43;103575.81;;;7.37;100.00
25430;BME280;13360;48.152;-1.788;2023-02-12T00:41:09;103568.41;;;7.31;100.00
25430;BME280;13360;48.152;-1.788;2023-02-12T00:43:35;103568.63;;;7.29;100.00
25430;BME280;13360;48.152;-1.788;2023-02-12T00:46:00;103571.38;;;7.29;100.00
25430;BME280;13360;48.152;-1.788;2023-02-12T00:48:26;103559.47;;;7.22;100.00
25430;BME280;13360;48.152;-1.788;2023-02-12T00:50:51;103552.47;;;7.20;100.00
25430;BME280;13360;48.152;-1.788;2023-02-12T00:53:17;103538.75;;;7.20;100.00
25430;BME280;13360;48.152;-1.788;2023-02-12T00:55:42;103536.63;;;7.15;100.00
25430;BME280;13360;48.152;-1.788;2023-02-12T00:58:08;103540.22;;;7.16;100.00
25430;BME280;13360;48.152;-1.788;2023-02-12T01:00:34;103525.81;;;7.14;100.00
25430;BME280;13360;48.152;-1.788;2023-02-12T01:03:00;103522.00;;;7.08;100.00
25430;BME280;13360;48.152;-1.788;2023-02-12T01:05:25;103522.00;;;7.08;100.00
25430;BME280;13360;48.152;-1.788;2023-02-12T01:07:52;103510.56;;;7.04;100.00
25430;BME280;13360;48.152;-1.788;2023-02-12T01:10:19;103515.41;;;7.02;100.00
25430;BME280;13360;48.152;-1.788;2023-02-12T01:12:48;103509.06;;;7.02;100.00
25430;BME280;13360;48.152;-1.788;2023-02-12T01:15:14;103501.03;;;7.00;100.00
25430;BME280;13360;48.152;-1.788;2023-02-12T01:17:39;103485.16;;;6.96;100.00
25430;BME280;13360;48.152;-1.788;2023-02-12T01:20:07;103483.47;;;6.95;100.00
25430;BME280;13360;48.152;-1.788;2023-02-12T01:22:36;103476.06;;;6.89;100.00
25430;BME280;13360;48.152;-1.788;2023-02-12T01:25:06;103471.63;;;6.88;100.00
25430;BME280;13360;48.152;-1.788;2023-02-12T01:27:32;103466.13;;;6.88;100.00
25430;BME280;13360;48.152;-1.788;2023-02-12T01:29:57;103462.72;;;6.86;100.00
25430;BME280;13360;48.152;-1.788;2023-02-12T01:32:23;103452.13;;;6.83;100.00
25430;BME280;13360;48.152;-1.788;2023-02-12T01:34:48;103451.06;;;6.84;100.00
25430;BME280;13360;48.152;-1.788;2023-02-12T01:37:14;103443.03;;;6.82;100.00
25430;BME280;13360;48.152;-1.788;2023-02-12T01:39:39;103446.44;;;6.84;100.00
25430;BME280;13360;48.152;-1.788;2023-02-12T01:42:05;103436.06;;;6.80;100.00
25430;BME280;13360;48.152;-1.788;2023-02-12T01:44:32;103430.13;;;6.76;100.00
25430;BME280;13360;48.152;-1.788;2023-02-12T01:47:04;103430.13;;;6.76;100.00
25430;BME280;13360;48.152;-1.788;2023-02-12T01:52:04;103423.81;;;6.76;100.00
25430;BME280;13360;48.152;-1.788;2023-02-12T01:54:33;103425.91;;;6.73;100.00
25430;BME280;13360;48.152;-1.788;2023-02-12T01:57:00;103416.81;;;6.73;100.00
25430;BME280;13360;48.152;-1.788;2023-02-12T01:59:27;103424.00;;;6.74;100.00
25430;BME280;13360;48.152;-1.788;2023-02-12T02:01:54;103411.31;;;6.73;100.00
25430;BME280;13360;48.152;-1.788;2023-02-12T02:04:22;103413.22;;;6.72;100.00
25430;BME280;13360;48.152;-1.788;2023-02-12T02:06:55;103416.38;;;6.69;100.00
25430;BME280;13360;48.152;-1.788;2023-02-12T02:09:21;103401.34;;;6.65;100.00
25430;BME280;13360;48.152;-1.788;2023-02-12T02:11:47;103412.75;;;6.62;100.00
25430;BME280;13360;48.152;-1.788;2023-02-12T02:14:31;103402.41;;;6.64;100.00
25430;BME280;13360;48.152;-1.788;2023-02-12T02:22:36;103384.44;;;6.55;100.00
25430;BME280;13360;48.152;-1.788;2023-02-12T02:30:59;103396.25;;;6.56;100.00
25430;BME280;13360;48.152;-1.788;2023-02-12T02:36:45;103389.91;;;6.49;100.00
25430;BME280;13360;48.152;-1.788;2023-02-12T02:39:52;103394.34;;;6.50;100.00
25430;BME280;13360;48.152;-1.788;2023-02-12T02:42:22;103386.69;;;6.45;100.00
25430;BME280;13360;48.152;-1.788;2023-02-12T02:44:54;103380.97;;;6.40;100.00
25430;BME280;13360;48.152;-1.788;2023-02-12T02:47:31;103390.69;;;6.36;100.00
25430;BME280;13360;48.152;-1.788;2023-02-12T02:50:02;103379.47;;;6.31;100.00
25430;BME280;13360;48.152;-1.788;2023-02-12T02:52:34;103376.72;;;6.31;100.00
25430;BME280;13360;48.152;-1.788;2023-02-12T02:55:06;103377.38;;;6.33;100.00
25430;BME280;13360;48.152;-1.788;2023-02-12T03:00:30;103380.13;;;6.33;100.00
25430;BME280;13360;48.152;-1.788;2023-02-12T03:03:01;103389.19;;;6.33;100.00
25430;BME280;13360;48.152;-1.788;2023-02-12T03:05:42;103380.31;;;6.31;100.00
25430;BME280;13360;48.152;-1.788;2023-02-12T03:08:18;103388.16;;;6.34;100.00
25430;BME280;13360;48.152;-1.788;2023-02-12T03:10:52;103394.47;;;6.35;100.00
25430;BME280;13360;48.152;-1.788;2023-02-12T03:13:33;103386.44;;;6.33;100.00
25430;BME280;13360;48.152;-1.788;2023-02-12T03:16:06;103394.25;;;6.30;100.00
25430;BME280;13360;48.152;-1.788;2023-02-12T03:18:42;103400.59;;;6.30;100.00
25430;BME280;13360;48.152;-1.788;2023-02-12T03:21:14;103392.97;;;6.26;100.00
25430;BME280;13360;48.152;-1.788;2023-02-12T03:23:56;103393.34;;;6.23;100.00
25430;BME280;13360;48.152;-1.788;2023-02-12T03:26:35;103383.84;;;6.19;100.00
25430;BME280;13360;48.152;-1.788;2023-02-12T03:29:02;103383.84;;;6.19;100.00
25430;BME280;13360;48.152;-1.788;2023-02-12T03:37:04;103380.00;;;6.13;100.00
25430;BME280;13360;48.152;-1.788;2023-02-12T03:50:27;103333.91;;;6.02;100.00
25430;BME280;13360;48.152;-1.788;2023-02-12T03:52:55;103345.31;;;5.99;100.00
25430;BME280;13360;48.152;-1.788;2023-02-12T03:55:20;103338.53;;;5.95;100.00
25430;BME280;13360;48.152;-1.788;2023-02-12T03:57:51;103344.81;;;5.89;100.00
25430;BME280;13360;48.152;-1.788;2023-02-12T04:00:22;103342.91;;;5.89;100.00
25430;BME280;13360;48.152;-1.788;2023-02-12T04:02:48;103349.28;;;5.90;100.00
25430;BME280;13360;48.152;-1.788;2023-02-12T04:05:25;103336.78;;;5.87;100.00
25430;BME280;13360;48.152;-1.788;2023-02-12T04:07:51;103329.41;;;5.88;100.00
25430;BME280;13360;48.152;-1.788;2023-02-12T04:10:21;103345.00;;;5.87;100.00
25430;BME280;13360;48.152;-1.788;2023-02-12T04:12:54;103342.28;;;5.87;100.00
25430;BME280;13360;48.152;-1.788;2023-02-12T04:15:42;103340.09;;;5.82;100.00
25430;BME280;13360;48.152;-1.788;2023-02-12T04:18:18;103344.09;;;5.80;100.00
25430;BME280;13360;48.152;-1.788;2023-02-12T04:21:00;103343.91;;;5.81;100.00
25430;BME280;13360;48.152;-1.788;2023-02-12T04:26:14;103346.00;;;5.79;100.00
25430;BME280;13360;48.152;-1.788;2023-02-12T04:31:22;103349.34;;;5.75;100.00
25430;BME280;13360;48.152;-1.788;2023-02-12T04:34:16;103350.22;;;5.75;100.00
25430;BME280;13360;48.152;-1.788;2023-02-12T04:37:09;103346.81;;;5.73;100.00
25430;BME280;13360;48.152;-1.788;2023-02-12T04:39:38;103337.72;;;5.66;100.00
25430;BME280;13360;48.152;-1.788;2023-02-12T04:42:05;103341.50;;;5.65;100.00
25430;BME280;13360;48.152;-1.788;2023-02-12T04:44:33;103351.84;;;5.63;100.00
25430;BME280;13360;48.152;-1.788;2023-02-12T04:46:59;103350.13;;;5.62;100.00
25430;BME280;13360;48.152;-1.788;2023-02-12T04:49:25;103359.00;;;5.64;100.00
25430;BME280;13360;48.152;-1.788;2023-02-12T04:51:51;103359.22;;;5.63;100.00
25430;BME280;13360;48.152;-1.788;2023-02-12T04:54:18;103343.13;;;5.60;100.00
25430;BME280;13360;48.152;-1.788;2023-02-12T04:56:44;103331.13;;;5.61;100.00
25430;BME280;13360;48.152;-1.788;2023-02-12T04:59:10;103335.72;;;5.54;100.00
25430;BME280;13360;48.152;-1.788;2023-02-12T05:01:36;103338.06;;;5.57;100.00
25430;BME280;13360;48.152;-1.788;2023-02-12T05:04:02;103328.78;;;5.58;100.00
25430;BME280;13360;48.152;-1.788;2023-02-12T05:06:28;103351.34;;;5.60;100.00
25430;BME280;13360;48.152;-1.788;2023-02-12T05:08:57;103347.97;;;5.58;100.00
25430;BME280;13360;48.152;-1.788;2023-02-12T05:11:22;103352.41;;;5.59;100.00
25430;BME280;13360;48.152;-1.788;2023-02-12T05:13:49;103350.06;;;5.56;100.00
25430;BME280;13360;48.152;-1.788;2023-02-12T05:16:15;103343.75;;;5.55;100.00
25430;BME280;13360;48.152;-1.788;2023-02-12T05:18:41;103334.03;;;5.53;100.00
25430;BME280;13360;48.152;-1.788;2023-02-12T05:21:06;103350.47;;;5.53;100.00
25430;BME280;13360;48.152;-1.788;2023-02-12T05:23:34;103352.16;;;5.54;100.00
25430;BME280;13360;48.152;-1.788;2023-02-12T05:26:01;103351.72;;;5.50;100.00
25430;BME280;13360;48.152;-1.788;2023-02-12T05:28:27;103362.28;;;5.53;100.00
25430;BME280;13360;48.152;-1.788;2023-02-12T05:30:53;103366.91;;;5.53;100.00
25430;BME280;13360;48.152;-1.788;2023-02-12T05:33:18;103366.28;;;5.50;100.00
25430;BME280;13360;48.152;-1.788;2023-02-12T05:35:44;103362.25;;;5.46;100.00
25430;BME280;13360;48.152;-1.788;2023-02-12T05:38:09;103366.03;;;5.45;100.00
25430;BME280;13360;48.152;-1.788;2023-02-12T05:40:34;103356.53;;;5.41;100.00
25430;BME280;13360;48.152;-1.788;2023-02-12T05:43:00;103356.25;;;5.36;100.00
25430;BME280;13360;48.152;-1.788;2023-02-12T05:45:26;103353.50;;;5.36;100.00
25430;BME280;13360;48.152;-1.788;2023-02-12T05:47:54;103355.19;;;5.37;100.00
25430;BME280;13360;48.152;-1.788;2023-02-12T05:50:20;103334.31;;;5.36;100.00
25430;BME280;13360;48.152;-1.788;2023-02-12T05:52:45;103343.59;;;5.35;100.00
25430;BME280;13360;48.152;-1.788;2023-02-12T05:55:10;103340.19;;;5.33;100.00
25430;BME280;13360;48.152;-1.788;2023-02-12T05:57:36;103342.69;;;5.28;100.00
25430;BME280;13360;48.152;-1.788;2023-02-12T06:00:03;103336.56;;;5.26;100.00
25430;BME280;13360;48.152;-1.788;2023-02-12T06:02:29;103342.69;;;5.28;100.00
25430;BME280;13360;48.152;-1.788;2023-02-12T06:04:54;103335.97;;;5.31;100.00
25430;BME280;13360;48.152;-1.788;2023-02-12T06:07:19;103336.16;;;5.29;100.00
25430;BME280;13360;48.152;-1.788;2023-02-12T06:09:45;103327.69;;;5.24;100.00
25430;BME280;13360;48.152;-1.788;2023-02-12T06:12:11;103331.69;;;5.22;100.00
25430;BME280;13360;48.152;-1.788;2023-02-12T06:14:36;103326.56;;;5.18;100.00
25430;BME280;13360;48.152;-1.788;2023-02-12T06:17:01;103322.53;;;5.14;100.00
25430;BME280;13360;48.152;-1.788;2023-02-12T06:19:27;103323.59;;;5.13;100.00
25430;BME280;13360;48.152;-1.788;2023-02-12T06:21:52;103320.25;;;5.18;100.00
25430;BME280;13360;48.152;-1.788;2023-02-12T06:24:18;103311.38;;;5.16;100.00
25430;BME280;13360;48.152;-1.788;2023-02-12T06:26:44;103324.03;;;5.17;100.00
25430;BME280;13360;48.152;-1.788;2023-02-12T06:29:10;103316.03;;;5.15;100.00
25430;BME280;13360;48.152;-1.788;2023-02-12T06:31:36;103307.16;;;5.13;100.00
25430;BME280;13360;48.152;-1.788;2023-02-12T06:34:07;103310.94;;;5.12;100.00
25430;BME280;13360;48.152;-1.788;2023-02-12T06:36:35;103312.19;;;5.10;100.00
25430;BME280;13360;48.152;-1.788;2023-02-12T06:39:01;103307.09;;;5.07;100.00
25430;BME280;13360;48.152;-1.788;2023-02-12T06:41:27;103321.00;;;5.05;100.00
25430;BME280;13360;48.152;-1.788;2023-02-12T06:43:52;103319.75;;;5.08;100.00
25430;BME280;13360;48.152;-1.788;2023-02-12T06:46:18;103320.59;;;5.08;100.00
25430;BME280;13360;48.152;-1.788;2023-02-12T06:48:43;103322.50;;;5.08;100.00
25430;BME280;13360;48.152;-1.788;2023-02-12T06:51:13;103325.44;;;5.06;100.00
25430;BME280;13360;48.152;-1.788;2023-02-12T06:53:39;103326.28;;;5.07;100.00
25430;BME280;13360;48.152;-1.788;2023-02-12T06:56:06;103323.53;;;5.07;100.00
25430;BME280;13360;48.152;-1.788;2023-02-12T06:58:36;103330.06;;;5.06;100.00
25430;BME280;13360;48.152;-1.788;2023-02-12T07:01:20;103332.16;;;5.04;100.00
25430;BME280;13360;48.152;-1.788;2023-02-12T07:03:51;103326.88;;;5.02;100.00
25430;BME280;13360;48.152;-1.788;2023-02-12T07:06:17;103335.31;;;5.01;100.00
25430;BME280;13360;48.152;-1.788;2023-02-12T07:08:43;103338.41;;;4.98;100.00
25430;BME280;13360;48.152;-1.788;2023-02-12T07:11:08;103354.28;;;5.02;100.00
25430;BME280;13360;48.152;-1.788;2023-02-12T07:13:34;103358.50;;;5.05;100.00
25430;BME280;13360;48.152;-1.788;2023-02-12T07:16:07;103364.84;;;5.05;100.00
25430;BME280;13360;48.152;-1.788;2023-02-12T07:18:34;103358.72;;;5.03;100.00
25430;BME280;13360;48.152;-1.788;2023-02-12T07:20:59;103341.13;;;4.98;100.00
25430;BME280;13360;48.152;-1.788;2023-02-12T07:23:25;103347.47;;;4.98;100.00
25430;BME280;13360;48.152;-1.788;2023-02-12T07:25:57;103347.94;;;5.02;100.00
25430;BME280;13360;48.152;-1.788;2023-02-12T07:28:23;103344.72;;;4.98;100.00
25430;BME280;13360;48.152;-1.788;2023-02-12T07:30:48;103337.31;;;4.92;100.00
25430;BME280;13360;48.152;-1.788;2023-02-12T07:33:13;103344.28;;;4.95;100.00
25430;BME280;13360;48.152;-1.788;2023-02-12T07:35:39;103343.63;;;4.93;100.00
25430;BME280;13360;48.152;-1.788;2023-02-12T07:38:04;103361.97;;;4.92;100.00
25430;BME280;13360;48.152;-1.788;2023-02-12T07:40:29;103356.44;;;4.85;100.00
25430;BME280;13360;48.152;-1.788;2023-02-12T07:42:55;103362.94;;;4.84;100.00
25430;BME280;13360;48.152;-1.788;2023-02-12T07:45:21;103375.59;;;4.85;100.00
25430;BME280;13360;48.152;-1.788;2023-02-12T07:47:46;103393.34;;;4.89;100.00
25430;BME280;13360;48.152;-1.788;2023-02-12T07:50:11;103410.03;;;4.95;100.00
25430;BME280;13360;48.152;-1.788;2023-02-12T07:52:37;103403.50;;;4.96;100.00
25430;BME280;13360;48.152;-1.788;2023-02-12T07:55:02;103408.78;;;4.97;100.00
25430;BME280;13360;48.152;-1.788;2023-02-12T07:57:28;103412.00;;;5.01;100.00
25430;BME280;13360;48.152;-1.788;2023-02-12T07:59:53;103420.47;;;5.06;100.00
25430;BME280;13360;48.152;-1.788;2023-02-12T08:02:18;103420.69;;;5.04;100.00
25430;BME280;13360;48.152;-1.788;2023-02-12T08:04:44;103417.50;;;5.01;100.00
25430;BME280;13360;48.152;-1.788;2023-02-12T08:07:09;103430.50;;;4.99;100.00
25430;BME280;13360;48.152;-1.788;2023-02-12T08:09:34;103435.88;;;5.07;100.00
25430;BME280;13360;48.152;-1.788;2023-02-12T08:12:00;103431.50;;;5.12;100.00
25430;BME280;13360;48.152;-1.788;2023-02-12T08:14:25;103430.06;;;5.16;100.00
25430;BME280;13360;48.152;-1.788;2023-02-12T08:16:51;103437.88;;;5.19;100.00
25430;BME280;13360;48.152;-1.788;2023-02-12T08:19:18;103439.41;;;5.22;100.00
25430;BME280;13360;48.152;-1.788;2023-02-12T08:21:43;103448.09;;;5.26;100.00
25430;BME280;13360;48.152;-1.788;2023-02-12T08:24:09;103454.03;;;5.29;100.00
25430;BME280;13360;48.152;-1.788;2023-02-12T08:26:37;103464.59;;;5.32;100.00
25430;BME280;13360;48.152;-1.788;2023-02-12T08:29:05;103462.09;;;5.37;100.00
25430;BME280;13360;48.152;-1.788;2023-02-12T08:31:36;103465.50;;;5.39;100.00
25430;BME280;13360;48.152;-1.788;2023-02-12T08:34:02;103464.28;;;5.42;100.00
25430;BME280;13360;48.152;-1.788;2023-02-12T08:36:30;103466.63;;;5.45;100.00
25430;BME280;13360;48.152;-1.788;2023-02-12T08:38:59;103474.25;;;5.49;100.00
25430;BME280;13360;48.152;-1.788;2023-02-12T08:41:26;103479.13;;;5.54;100.00
25430;BME280;13360;48.152;-1.788;2023-02-12T08:43:54;103482.09;;;5.53;100.00
25430;BME280;13360;48.152;-1.788;2023-02-12T08:46:32;103490.56;;;5.58;100.00
25430;BME280;13360;48.152;-1.788;2023-02-12T08:49:07;103497.47;;;5.75;100.00
25430;BME280;13360;48.152;-1.788;2023-02-12T08:51:38;103510.25;;;5.89;100.00
25430;BME280;13360;48.152;-1.788;2023-02-12T08:54:06;103521.19;;;6.04;100.00
25430;BME280;13360;48.152;-1.788;2023-02-12T08:56:34;103536.28;;;6.21;100.00
25430;BME280;13360;48.152;-1.788;2023-02-12T08:59:01;103551.56;;;6.30;100.00
25430;BME280;13360;48.152;-1.788;2023-02-12T09:01:29;103559.84;;;6.37;100.00
25430;BME280;13360;48.152;-1.788;2023-02-12T09:03:55;103554.81;;;6.40;100.00
25430;BME280;13360;48.152;-1.788;2023-02-12T09:06:22;103585.06;;;6.47;100.00
25430;BME280;13360;48.152;-1.788;2023-02-12T09:08:49;103592.25;;;6.48;100.00
25430;BME280;13360;48.152;-1.788;2023-02-12T09:11:18;103610.28;;;6.57;100.00
25430;BME280;13360;48.152;-1.788;2023-02-12T09:13:45;103633.13;;;6.64;100.00
25430;BME280;13360;48.152;-1.788;2023-02-12T09:16:12;103648.41;;;6.67;100.00
25430;BME280;13360;48.152;-1.788;2023-02-12T09:18:38;103668.47;;;6.67;100.00
25430;BME280;13360;48.152;-1.788;2023-02-12T09:21:07;103680.00;;;6.56;100.00
25430;BME280;13360;48.152;-1.788;2023-02-12T09:23:34;103693.91;;;6.55;100.00
25430;BME280;13360;48.152;-1.788;2023-02-12T09:26:04;103725.88;;;6.62;100.00
25430;BME280;13360;48.152;-1.788;2023-02-12T09:28:29;103740.75;;;6.47;100.00
25430;BME280;13360;48.152;-1.788;2023-02-12T09:30:55;103763.56;;;6.47;100.00
25430;BME280;13360;48.152;-1.788;2023-02-12T09:33:20;103781.75;;;6.48;100.00
25430;BME280;13360;48.152;-1.788;2023-02-12T09:35:47;103800.63;;;6.36;100.00
25430;BME280;13360;48.152;-1.788;2023-02-12T09:38:12;103805.91;;;6.02;100.00
25430;BME280;13360;48.152;-1.788;2023-02-12T09:43:38;103844.78;;;5.76;100.00
25430;BME280;13360;48.152;-1.788;2023-02-12T09:46:19;103870.25;;;5.85;100.00
25430;BME280;13360;48.152;-1.788;2023-02-12T09:48:54;103901.41;;;6.06;100.00
25430;BME280;13360;48.152;-1.788;2023-02-12T09:51:22;103920.69;;;5.98;100.00
25430;BME280;13360;48.152;-1.788;2023-02-12T09:53:49;103917.72;;;5.70;100.00
25430;BME280;13360;48.152;-1.788;2023-02-12T09:56:21;103948.97;;;5.84;100.00
25430;BME280;13360;48.152;-1.788;2023-02-12T09:58:55;103979.31;;;6.05;100.00
25430;BME280;13360;48.152;-1.788;2023-02-12T10:01:22;104001.38;;;6.27;100.00
25430;BME280;13360;48.152;-1.788;2023-02-12T10:03:51;104000.41;;;6.20;100.00
25430;BME280;13360;48.152;-1.788;2023-02-12T10:06:23;104012.72;;;6.24;100.00
25430;BME280;13360;48.152;-1.788;2023-02-12T10:22:34;104130.41;;;6.27;100.00
25430;BME280;13360;48.152;-1.788;2023-02-12T10:28:06;104152.84;;;6.30;100.00
25430;BME280;13360;48.152;-1.788;2023-02-12T10:33:13;104168.25;;;6.54;100.00
25430;BME280;13360;48.152;-1.788;2023-02-12T10:35:43;104182.88;;;6.69;100.00
25430;BME280;13360;48.152;-1.788;2023-02-12T10:38:19;104189.63;;;6.96;100.00
25430;BME280;13360;48.152;-1.788;2023-02-12T10:40:45;104179.47;;;6.97;100.00
25430;BME280;13360;48.152;-1.788;2023-02-12T10:43:12;104188.38;;;6.84;100.00
25430;BME280;13360;48.152;-1.788;2023-02-12T10:45:39;104185.69;;;6.61;100.00
25430;BME280;13360;48.152;-1.788;2023-02-12T10:48:09;104190.31;;;6.61;100.00
25430;BME280;13360;48.152;-1.788;2023-02-12T10:50:47;104185.06;;;6.74;100.00
25430;BME280;13360;48.152;-1.788;2023-02-12T10:53:21;104201.47;;;6.97;100.00
25430;BME280;13360;48.152;-1.788;2023-02-12T10:55:47;104189.59;;;6.82;100.00
25430;BME280;13360;48.152;-1.788;2023-02-12T10:58:19;104208.44;;;6.85;100.00
25430;BME280;13360;48.152;-1.788;2023-02-12T11:00:44;104211.13;;;6.93;100.00
25430;BME280;13360;48.152;-1.788;2023-02-12T11:05:38;104214.38;;;7.11;100.00
25430;BME280;13360;48.152;-1.788;2023-02-12T11:08:04;104200.50;;;7.04;100.00
25430;BME280;13360;48.152;-1.788;2023-02-12T11:10:36;104195.22;;;6.88;100.00
25430;BME280;13360;48.152;-1.788;2023-02-12T11:13:02;104211.41;;;6.98;100.00
25430;BME280;13360;48.152;-1.788;2023-02-12T11:15:45;104206.97;;;6.97;100.00
25430;BME280;13360;48.152;-1.788;2023-02-12T11:18:21;104197.47;;;6.85;100.00
25430;BME280;13360;48.152;-1.788;2023-02-12T11:20:52;104232.34;;;7.28;100.00
25430;BME280;13360;48.152;-1.788;2023-02-12T11:28:21;104197.09;;;7.32;100.00
25430;BME280;13360;48.152;-1.788;2023-02-12T11:33:35;104162.41;;;7.16;100.00
25430;BME280;13360;48.152;-1.788;2023-02-12T11:36:12;104150.28;;;7.11;100.00
25430;BME280;13360;48.152;-1.788;2023-02-12T11:38:48;104181.72;;;7.38;100.00
25430;BME280;13360;48.152;-1.788;2023-02-12T11:41:33;104168.63;;;7.40;100.00
25430;BME280;13360;48.152;-1.788;2023-02-12T11:44:07;104195.59;;;7.65;100.00
25430;BME280;13360;48.152;-1.788;2023-02-12T11:46:33;104183.75;;;7.65;100.00
25430;BME280;13360;48.152;-1.788;2023-02-12T11:49:00;104152.16;;;7.61;100.00
25430;BME280;13360;48.152;-1.788;2023-02-12T11:51:28;104121.88;;;7.40;100.00
25430;BME280;13360;48.152;-1.788;2023-02-12T11:53:57;104113.09;;;7.29;100.00
25430;BME280;13360;48.152;-1.788;2023-02-12T11:56:24;104123.84;;;7.46;100.00
25430;BME280;13360;48.152;-1.788;2023-02-12T11:59:30;104079.53;;;7.19;100.00
25430;BME280;13360;48.152;-1.788;2023-02-12T12:04:45;104117.53;;;7.30;100.00
25430;BME280;13360;48.152;-1.788;2023-02-12T12:07:18;104140.81;;;7.49;100.00
25430;BME280;13360;48.152;-1.788;2023-02-12T12:09:54;104150.72;;;7.65;100.00
25430;BME280;13360;48.152;-1.788;2023-02-12T12:12:36;104149.28;;;7.69;100.00
25430;BME280;13360;48.152;-1.788;2023-02-12T12:15:14;104142.81;;;7.77;100.00
25430;BME280;13360;48.152;-1.788;2023-02-12T12:23:41;104138.13;;;8.13;100.00
25430;BME280;13360;48.152;-1.788;2023-02-12T12:26:14;104110.19;;;8.16;100.00
25430;BME280;13360;48.152;-1.788;2023-02-12T12:28:50;104081.50;;;8.11;100.00
25430;BME280;13360;48.152;-1.788;2023-02-12T12:31:26;104059.31;;;8.12;100.00
25430;BME280;13360;48.152;-1.788;2023-02-12T12:34:09;104081.38;;;8.19;100.00
25430;BME280;13360;48.152;-1.788;2023-02-12T12:40:02;104014.78;;;8.09;100.00
25430;BME280;13360;48.152;-1.788;2023-02-12T12:43:02;103998.47;;;8.07;100.00
25430;BME280;13360;48.152;-1.788;2023-02-12T12:46:01;103990.84;;;8.09;100.00
25430;BME280;13360;48.152;-1.788;2023-02-12T12:51:33;103979.19;;;8.07;100.00
25430;BME280;13360;48.152;-1.788;2023-02-12T12:56:50;103958.66;;;8.10;100.00
25430;BME280;13360;48.152;-1.788;2023-02-12T13:10:16;103950.19;;;8.11;100.00
25430;BME280;13360;48.152;-1.788;2023-02-12T13:26:44;103883.13;;;8.32;100.00
25430;BME280;13360;48.152;-1.788;2023-02-12T13:29:19;103868.72;;;8.30;100.00
25430;BME280;13360;48.152;-1.788;2023-02-12T13:31:52;103871.78;;;8.35;100.00
25430;BME280;13360;48.152;-1.788;2023-02-12T13:34:19;103874.34;;;8.43;100.00
25430;BME280;13360;48.152;-1.788;2023-02-12T13:36:48;103853.13;;;8.44;100.00
25430;BME280;13360;48.152;-1.788;2023-02-12T13:41:57;103826.22;;;8.46;100.00
25430;BME280;13360;48.152;-1.788;2023-02-12T13:44:31;103823.47;;;8.52;100.00
25430;BME280;13360;48.152;-1.788;2023-02-12T13:55:28;103820.53;;;8.54;100.00
25430;BME280;13360;48.152;-1.788;2023-02-12T14:01:02;103794.91;;;8.67;100.00
25430;BME280;13360;48.152;-1.788;2023-02-12T14:03:30;103784.94;;;8.66;100.00
25430;BME280;13360;48.152;-1.788;2023-02-12T14:06:20;103760.97;;;8.66;100.00
25430;BME280;13360;48.152;-1.788;2023-02-12T14:08:49;103759.06;;;8.67;100.00
25430;BME280;13360;48.152;-1.788;2023-02-12T14:11:18;103734.91;;;8.69;100.00
25430;BME280;13360;48.152;-1.788;2023-02-12T14:13:52;103725.78;;;8.68;100.00
25430;BME280;13360;48.152;-1.788;2023-02-12T14:16:34;103704.16;;;8.72;100.00
25430;BME280;13360;48.152;-1.788;2023-02-12T14:22:12;103701.19;;;8.67;100.00
25430;BME280;13360;48.152;-1.788;2023-02-12T14:24:50;103697.19;;;8.76;100.00
25430;BME280;13360;48.152;-1.788;2023-02-12T14:27:35;103684.88;;;8.78;100.00
25430;BME280;13360;48.152;-1.788;2023-02-12T14:37:56;103685.47;;;8.94;100.00
25430;BME280;13360;48.152;-1.788;2023-02-12T14:40:36;103672.13;;;8.91;100.00
25430;BME280;13360;48.152;-1.788;2023-02-12T14:45:52;103633.94;;;8.94;100.00
25430;BME280;13360;48.152;-1.788;2023-02-12T14:51:15;103616.97;;;9.04;100.00
25430;BME280;13360;48.152;-1.788;2023-02-12T14:53:44;103617.81;;;9.04;100.00
25430;BME280;13360;48.152;-1.788;2023-02-12T14:56:11;103610.16;;;9.06;100.00
25430;BME280;13360;48.152;-1.788;2023-02-12T14:58:36;103585.56;;;9.05;100.00
25430;BME280;13360;48.152;-1.788;2023-02-12T15:01:03;103576.41;;;9.11;100.00
25430;BME280;13360;48.152;-1.788;2023-02-12T15:06:35;103570.25;;;9.15;100.00
25430;BME280;13360;48.152;-1.788;2023-02-12T15:09:08;103561.78;;;9.17;100.00
25430;BME280;13360;48.152;-1.788;2023-02-12T15:11:43;103549.50;;;9.06;100.00
25430;BME280;13360;48.152;-1.788;2023-02-12T15:14:17;103548.44;;;9.07;100.00
25430;BME280;13360;48.152;-1.788;2023-02-12T15:19:47;103530.81;;;9.08;100.00
25430;BME280;13360;48.152;-1.788;2023-02-12T15:22:34;103530.59;;;9.10;100.00
25430;BME280;13360;48.152;-1.788;2023-02-12T15:27:47;103522.31;;;9.16;100.00
25430;BME280;13360;48.152;-1.788;2023-02-12T15:30:15;103519.97;;;9.13;100.00